CDT,Max TemperatureF,Mean TemperatureF,Min TemperatureF,Max Dew PointF,MeanDew PointF,Min DewpointF,Max Humidity, Mean Humidity, Min Humidity, Max Sea Level PressureIn, Mean Sea Level PressureIn, Min Sea Level PressureIn, Max VisibilityMiles, Mean VisibilityMiles, Min VisibilityMiles, Max Wind SpeedMPH, Mean Wind SpeedMPH, Max Gust SpeedMPH,PrecipitationIn, CloudCover, Events, WindDirDegrees
2012-10-1,68,54,39,52,38,30,73,50,26,30.09,30.05,29.95,10,10,10,24,11,31,0.02,1,,346
2012-10-2,73,54,34,32,27,20,76,45,14,30.02,29.88,29.77,10,10,10,24,10,31,0.00,0,,176
2012-10-3,77,60,42,41,29,23,82,49,16,29.83,29.78,29.70,10,10,10,33,12,40,0.00,1,,135
2012-10-4,43,40,36,38,32,26,92,76,59,30.31,30.13,29.88,10,9,4,35,22,44,T,8,Rain,314
2012-10-5,44,36,28,28,23,20,85,62,39,30.33,30.29,30.27,10,10,10,24,17,30,0.00,2,,313
2012-10-6,44,34,24,27,23,18,81,60,39,30.40,30.33,30.27,10,10,10,21,10,25,T,4,,344
2012-10-7,56,39,21,23,19,16,84,53,22,30.27,30.05,29.86,10,10,10,6,9,7,0.00,0,,203
2012-10-8,62,50,38,40,33,22,76,56,36,29.83,29.72,29.63,10,10,10,26,11,33,T,5,,240
2012-10-9,48,43,38,36,27,21,65,54,43,30.08,29.93,29.77,10,10,10,29,15,37,T,7,,313
2012-10-10,60,42,24,33,26,19,92,58,24,30.13,30.01,29.81,10,10,10,22,11,28,0.00,1,,243
2012-10-11,52,39,26,32,25,16,82,59,36,30.45,30.20,29.84,10,10,10,24,10,30,0.00,1,,359
2012-10-12,53,37,20,36,17,12,77,49,21,30.45,30.19,29.89,10,10,10,30,15,39,0.00,3,,172
2012-10-13,65,53,40,45,40,34,89,66,43,29.86,29.74,29.68,10,10,10,21,7,26,0.00,1,,226
2012-10-14,58,47,35,35,32,29,76,58,40,29.98,29.92,29.82,10,10,10,22,10,28,0.00,0,,330
2012-10-15,69,50,30,37,34,28,92,62,32,29.98,29.85,29.65,10,9,1,21,9,25,0.00,0,,173
2012-10-16,69,57,44,45,42,37,71,56,40,29.66,29.48,29.29,10,10,9,13,3,15,T,1,,268
2012-10-17,58,49,40,52,42,37,96,79,62,29.41,29.29,29.16,10,9,3,33,20,43,0.45,7,Rain,298
2012-10-18,46,43,39,43,40,36,96,91,85,29.58,29.36,29.24,10,5,1,40,30,53,0.98,8,Rain,325
2012-10-19,42,40,38,38,37,36,92,86,79,29.80,29.75,29.60,10,9,3,39,16,47,0.02,8,Rain,336
2012-10-20,57,46,35,43,38,34,100,79,57,29.79,29.73,29.66,10,5,0,18,11,24,0.00,4,Fog,174
2012-10-21,57,49,40,46,42,39,89,73,57,29.99,29.81,29.63,10,10,10,24,12,30,0.00,3,,37
2012-10-22,55,48,40,47,43,39,100,86,72,30.01,29.94,29.83,10,6,0,21,12,24,0.00,7,Fog,56
2012-10-23,59,52,45,54,51,45,100,89,77,29.82,29.72,29.65,10,4,0,20,7,29,T,8,Fog,165
2012-10-24,51,42,32,48,37,30,100,77,53,29.97,29.91,29.82,10,10,5,23,14,29,T,5,Snow,356
2012-10-25,35,33,31,31,28,23,100,82,64,30.29,30.02,29.90,10,7,1,29,20,36,0.06,8,Snow,342
2012-10-26,35,30,24,23,21,17,81,66,51,30.43,30.38,30.30,10,10,10,23,13,33,0.00,8,,275
2012-10-27,41,31,21,32,27,19,96,78,59,30.37,30.28,30.18,10,8,2,16,9,22,0.02,6,Snow,179
2012-10-28,46,40,33,32,31,30,96,79,62,30.29,30.22,30.16,10,8,6,18,8,23,0.00,6,,159
2012-10-29,53,44,35,32,30,29,76,61,46,30.15,30.13,30.11,10,10,10,21,12,25,0.00,3,,155
2012-10-30,45,40,34,34,30,26,85,67,49,30.15,30.12,30.09,10,10,10,16,8,21,0.02,7,,141
2012-10-31,59,44,28,39,32,24,92,68,44,30.08,30.03,29.94,10,9,2,20,6,24,0.00,1,,217